Main page
Satellite images 10-day forecastsClimateMarine weather Cyclones Lightning AirportsFAQ Newsletter About
Weather : Europe Africa North America South America Asia Australia-Oceania Others
Languages Contact

Milan, Italy

Malpensa Airport

latitude: 45-37N, longitude: 008-44E, elevation: 234 m


METAR: LIMC 300150Z 36005KT 9999 SCT080 18/17 Q1008 NOSIG
TAF: LIMC 292300Z 3000/3106 VRB05KT 9999 SCT050 TEMPO 3016/3021 TSRA

Time: 04:00 (02:00 UTC)

Current weather observation

The report was made 10 minutes ago, at 01:50 UTC
Wind 5 kt from the North
Temperature 18°C
Humidity 94%
Pressure 1008 hPa
Visibility 10 km or more
Scattered clouds at a height of 8000 ft

Change units

Forecast

The report was made 3 hours and 0 minutes ago, at 23:00 UTC
Forecast valid from 30 at 00 UTC to 31 at 06 UTC
Wind 5 kt from variable directions
Visibility 10 km or more
Scattered clouds at a height of 5000 ft
Temporary
from 30 at 16 UTC to 30 at 21 UTC
thunderstorm, rain
The information on this site is subject to a disclaimer
Weather : Europe Africa North America South America Asia Australia-Oceania Others
Satellite images 10-day forecastsClimateMarine weather Cyclones Lightning AirportsFAQ Languages Contact Newsletter About